Time;durP1;ratioP1;P1;durP2;ratioP2;P2;SDS_P1;SDS_P2;PMS_P1;PMS_P2;Temp;Humidity;BMP_temperature;BMP_pressure;BME280_temperature;BME280_humidity;BME280_pressure;Samples;Min_cycle;Max_cycle;Signal;HPM_P1;HPM_P2
2020/12/02 00:00:17;;;;;;;92.85;10.98;;;;;;;7.63;75.83;100294.16;4992644;28;20046;-90
2020/12/02 00:03:24;;;;;;;124.50;11.98;;;;;;;7.61;75.56;100295.97;4993228;28;20046;-90
2020/12/02 00:05:53;;;;;;;106.80;10.63;;;;;;;7.65;76.09;100297.56;4993145;28;20065;-90
2020/12/02 00:08:33;;;;;;;122.25;12.85;;;;;;;7.61;75.70;100295.97;4992945;28;20057;-90
2020/12/02 00:11:09;;;;;;;133.48;12.02;;;;;;;7.62;76.15;100285.44;4993810;28;20406;-90
2020/12/02 00:13:42;;;;;;;29.35;8.98;;;;;;;7.63;76.12;100295.00;4996644;28;20058;-90
2020/12/02 00:16:11;;;;;;;81.07;11.77;;;;;;;7.63;76.23;100288.94;4997116;28;20055;-90
2020/12/02 00:18:39;;;;;;;70.60;9.63;;;;;;;7.63;75.90;100289.75;4996646;28;20057;-90
2020/12/02 00:21:06;;;;;;;47.22;9.30;;;;;;;7.62;76.19;100282.81;4996915;28;20054;-90
2020/12/02 00:23:34;;;;;;;30.05;8.27;;;;;;;7.61;76.16;100288.97;4996672;28;20093;-90
2020/12/02 00:26:01;;;;;;;21.73;8.93;;;;;;;7.59;76.17;100287.31;4997772;28;20487;-90
2020/12/02 00:28:27;;;;;;;20.55;9.02;;;;;;;7.58;75.79;100289.06;4997588;28;20376;-91
2020/12/02 00:30:53;;;;;;;16.50;8.95;;;;;;;7.56;76.07;100293.53;4997954;28;20054;-90
2020/12/02 00:33:25;;;;;;;25.65;9.35;;;;;;;7.54;75.77;100292.72;4997045;28;20085;-91
2020/12/02 00:35:52;;;;;;;25.02;9.85;;;;;;;7.54;76.16;100290.09;4996831;28;20054;-91
2020/12/02 00:38:20;;;;;;;38.17;9.57;;;;;;;7.52;76.00;100290.16;4997505;28;20051;-90
2020/12/02 00:40:47;;;;;;;41.47;9.93;;;;;;;7.51;76.03;100285.81;4996485;28;20062;-90
2020/12/02 00:43:24;;;;;;;36.03;9.27;;;;;;;7.50;76.01;100291.09;4996582;28;20527;-90
2020/12/02 00:45:57;;;;;;;36.00;9.35;;;;;;;7.49;75.89;100298.13;4996257;28;20057;-90
2020/12/02 00:48:25;;;;;;;45.80;9.70;;;;;;;7.49;76.01;100292.91;4996343;28;20058;-90
2020/12/02 00:50:52;;;;;;;82.47;11.52;;;;;;;7.47;76.10;100294.69;4996572;28;20046;-90
2020/12/02 00:53:22;;;;;;;53.45;11.10;;;;;;;7.46;75.92;100292.13;4996348;28;20054;-90
2020/12/02 00:55:49;;;;;;;32.00;10.30;;;;;;;7.45;76.43;100291.28;4997206;28;20495;-90
2020/12/02 00:58:28;;;;;;;44.65;10.55;;;;;;;7.41;76.02;100285.28;4996340;28;20050;-90
2020/12/02 01:00:56;;;;;;;92.95;10.75;;;;;;;7.43;76.43;100277.38;4996128;28;20454;-90
2020/12/02 01:03:25;;;;;;;40.05;10.38;;;;;;;7.41;76.50;100285.28;4996171;28;20406;-91
2020/12/02 01:05:53;;;;;;;73.13;11.90;;;;;;;7.41;76.42;100287.06;4996383;28;20399;-91
2020/12/02 01:08:41;;;;;;;89.18;11.88;;;;;;;7.38;76.03;100292.41;4996989;28;20058;-90
2020/12/02 01:11:19;;;;;;;121.35;12.63;;;;;;;7.42;76.38;100294.88;4996199;28;20046;-90
2020/12/02 01:13:47;;;;;;;32.63;11.10;;;;;;;7.40;76.58;100294.06;4997074;28;20056;-90
2020/12/02 01:16:17;;;;;;;50.97;11.07;;;;;;;7.40;76.49;100288.81;4995956;28;20054;-90
2020/12/02 01:18:44;;;;;;;53.03;11.95;;;;;;;7.41;76.53;100287.91;4996675;28;20128;-90
2020/12/02 01:21:24;;;;;;;119.45;15.15;;;;;;;7.41;76.12;100279.22;4995482;28;20053;-89
2020/12/02 01:23:56;;;;;;;82.80;12.65;;;;;;;7.43;76.33;100280.88;4995105;28;20066;-90
2020/12/02 01:26:26;;;;;;;38.55;11.40;;;;;;;7.46;76.26;100282.53;4995785;28;20058;-90
2020/12/02 01:28:55;;;;;;;27.55;12.25;;;;;;;7.46;76.36;100285.13;4996947;28;20061;-90
2020/12/02 01:31:24;;;;;;;29.77;11.57;;;;;;;7.47;76.47;100281.59;4995639;28;20046;-90
2020/12/02 01:33:51;;;;;;;25.50;11.63;;;;;;;7.49;76.06;100278.94;4995723;28;20051;-90
2020/12/02 01:36:21;;;;;;;25.48;12.35;;;;;;;7.48;76.14;100285.09;4995535;28;20070;-90
2020/12/02 01:38:49;;;;;;;23.73;12.35;;;;;;;7.48;76.52;100282.47;4996500;28;20062;-90
2020/12/02 01:41:15;;;;;;;26.67;12.30;;;;;;;7.48;76.85;100285.91;4995512;28;20399;-90
2020/12/02 01:43:42;;;;;;;28.58;12.57;;;;;;;7.50;76.53;100280.63;4995290;28;20054;-90
2020/12/02 01:46:32;;;;;;;26.35;12.55;;;;;;;7.48;76.08;100285.09;4995065;28;20499;-90
2020/12/02 01:49:18;;;;;;;35.72;12.65;;;;;;;7.51;75.92;100287.59;4996541;28;20050;-90
2020/12/02 01:52:15;;;;;;;29.27;12.70;;;;;;;7.52;76.05;100281.44;4995113;28;20046;-91
2020/12/02 01:54:47;;;;;;;29.80;13.43;;;;;;;7.55;76.14;100281.31;4995296;28;20050;-90
2020/12/02 01:57:21;;;;;;;34.25;14.18;;;;;;;7.55;75.89;100283.94;4995287;28;20050;-91
2020/12/02 02:00:06;;;;;;;37.00;15.02;;;;;;;7.53;75.58;100283.16;4995162;28;20077;-91
2020/12/02 02:02:37;;;;;;;33.50;14.65;;;;;;;7.55;75.96;100276.06;4995040;28;20057;-90
2020/12/02 02:05:23;;;;;;;37.20;14.70;;;;;;;7.53;75.49;100275.28;4995011;28;20415;-91
2020/12/02 02:07:50;;;;;;;34.63;15.00;;;;;;;7.56;76.33;100281.25;4995065;28;20061;-90
2020/12/02 02:10:23;;;;;;;39.88;15.48;;;;;;;7.54;76.17;100282.22;4994773;28;20057;-91
2020/12/02 02:13:13;;;;;;;31.92;13.93;;;;;;;7.51;75.82;100279.75;4995056;28;20050;-90
2020/12/02 02:15:42;;;;;;;32.25;14.95;;;;;;;7.55;76.06;100273.47;4994573;28;20061;-91
2020/12/02 02:18:21;;;;;;;30.05;14.95;;;;;;;7.53;75.90;100273.53;4995048;28;20483;-90
2020/12/02 02:20:54;;;;;;;33.88;13.68;;;;;;;7.53;75.97;100268.31;4994646;28;20054;-90
2020/12/02 02:23:21;;;;;;;31.02;15.15;;;;;;;7.52;76.15;100260.50;4994350;28;20054;-90
2020/12/02 02:26:10;;;;;;;30.98;14.85;;;;;;;7.46;75.41;100261.56;4996109;28;20137;-90
2020/12/02 02:28:52;;;;;;;26.42;14.32;;;;;;;7.47;76.03;100262.44;4994583;28;20058;-90
2020/12/02 02:31:21;;;;;;;29.52;14.88;;;;;;;7.45;76.12;100259.00;4995136;28;20051;-90
2020/12/02 02:33:49;;;;;;;27.38;13.48;;;;;;;7.42;76.35;100258.22;4994316;28;20065;-90
2020/12/02 02:36:19;;;;;;;27.42;14.63;;;;;;;7.38;76.01;100256.59;4994530;28;20074;-90
2020/12/02 02:38:45;;;;;;;26.15;13.93;;;;;;;7.35;76.38;100254.09;4995661;28;20112;-90
2020/12/02 02:41:11;;;;;;;30.67;15.48;;;;;;;7.34;76.45;100255.00;4994187;28;20050;-90
2020/12/02 02:43:38;;;;;;;29.75;14.98;;;;;;;7.34;76.47;100260.25;4994440;28;20054;-90
2020/12/02 02:46:05;;;;;;;31.48;14.43;;;;;;;7.33;76.48;100257.69;4994180;28;20058;-90
2020/12/02 02:48:32;;;;;;;37.35;16.40;;;;;;;7.32;76.58;100258.59;4994140;28;20484;-90
2020/12/02 02:50:59;;;;;;;32.47;15.57;;;;;;;7.32;76.55;100255.97;4994236;28;20050;-90
2020/12/02 02:53:27;;;;;;;39.10;16.27;;;;;;;7.32;76.63;100262.03;4995261;28;20057;-89
2020/12/02 02:55:54;;;;;;;41.38;16.80;;;;;;;7.32;76.47;100259.44;4995936;28;20506;-89
2020/12/02 02:58:25;;;;;;;34.28;16.05;;;;;;;7.32;76.68;100259.44;4993794;28;20517;-90
2020/12/02 03:01:00;;;;;;;34.50;15.10;;;;;;;7.32;76.30;100262.03;4993770;28;20053;-90
2020/12/02 03:03:30;;;;;;;45.78;15.88;;;;;;;7.32;76.47;100248.94;4994194;28;20065;-90
2020/12/02 03:05:58;;;;;;;50.05;15.27;;;;;;;7.33;76.57;100253.28;4994096;28;20062;-90
2020/12/02 03:08:25;;;;;;;35.95;13.85;;;;;;;7.33;76.53;100250.66;4994055;28;20054;-90
2020/12/02 03:10:51;;;;;;;80.43;15.25;;;;;;;7.33;76.72;100253.28;4993955;28;20061;-91
2020/12/02 03:13:51;;;;;;;36.17;12.85;;;;;;;7.28;76.02;100245.59;4993515;28;20053;-90
2020/12/02 03:16:36;;;;;;;51.10;14.85;;;;;;;7.34;76.67;100251.53;4986268;28;20053;-90
2020/12/02 03:19:18;;;;;;;75.85;14.32;;;;;;;7.30;76.35;100250.78;4994615;28;20057;-90
2020/12/02 03:21:44;;;;;;;79.38;14.38;;;;;;;7.34;76.65;100239.28;4993783;28;20050;-91
2020/12/02 03:24:11;;;;;;;123.93;15.07;;;;;;;7.34;76.34;100236.66;4993442;28;20061;-90
2020/12/02 03:26:38;;;;;;;79.65;12.75;;;;;;;7.33;76.76;100240.19;4994680;28;20122;-90
2020/12/02 03:29:06;;;;;;;69.95;11.73;;;;;;;7.33;76.82;100234.94;4993563;28;20053;-90
2020/12/02 03:31:32;;;;;;;82.85;12.43;;;;;;;7.34;76.57;100230.56;4993995;28;20471;-90
2020/12/02 03:33:59;;;;;;;99.50;13.32;;;;;;;7.33;76.68;100229.69;4993646;28;20054;-89
2020/12/02 03:36:25;;;;;;;169.13;13.20;;;;;;;7.35;76.80;100232.28;4994278;28;20141;-90
2020/12/02 03:38:53;;;;;;;98.90;11.90;;;;;;;7.35;76.64;100233.13;4993911;28;20558;-90
2020/12/02 03:41:20;;;;;;;62.63;9.90;;;;;;;7.35;76.56;100225.28;4993042;28;20050;-89
2020/12/02 03:43:46;;;;;;;83.57;11.00;;;;;;;7.35;76.61;100233.13;4993226;28;20133;-90
2020/12/02 03:46:13;;;;;;;62.35;10.93;;;;;;;7.35;76.48;100233.13;4992698;28;20108;-90
2020/12/02 03:48:39;;;;;;;89.47;10.60;;;;;;;7.36;76.64;100229.59;4993495;28;20050;-89
2020/12/02 03:51:06;;;;;;;89.88;10.88;;;;;;;7.37;76.50;100217.38;4993821;28;20053;-90
2020/12/02 03:53:32;;;;;;;122.45;11.73;;;;;;;7.37;76.53;100222.59;4993027;28;20058;-90
2020/12/02 03:55:59;;;;;;;121.07;11.32;;;;;;;7.35;76.84;100206.94;4992482;28;20053;-89
2020/12/02 03:58:25;;;;;;;47.90;9.63;;;;;;;7.37;76.82;100215.59;4991851;28;20137;-89
2020/12/02 04:00:52;;;;;;;48.15;11.05;;;;;;;7.37;76.51;100210.34;4993791;28;20136;-89
2020/12/02 04:03:19;;;;;;;80.38;10.93;;;;;;;7.37;76.54;100207.72;4994144;28;20422;-90
2020/12/02 04:05:46;;;;;;;54.50;10.20;;;;;;;7.37;76.48;100209.50;4993170;28;20136;-90
2020/12/02 04:08:12;;;;;;;27.60;10.85;;;;;;;7.36;76.66;100197.34;4993172;28;20054;-91
2020/12/02 04:10:38;;;;;;;92.00;12.90;;;;;;;7.37;76.67;100204.28;4993219;28;20057;-90
2020/12/02 04:13:05;;;;;;;72.13;11.82;;;;;;;7.36;76.62;100206.03;4992900;28;20066;-90
2020/12/02 04:15:31;;;;;;;127.50;12.73;;;;;;;7.36;76.70;100199.97;4992744;28;20591;-90
2020/12/02 04:17:57;;;;;;;102.82;11.13;;;;;;;7.37;76.75;100209.50;4993060;28;20046;-90
2020/12/02 04:20:24;;;;;;;191.68;14.00;;;;;;;7.37;76.55;100197.25;4992824;28;20507;-90
2020/12/02 04:22:52;;;;;;;170.35;12.82;;;;;;;7.37;76.74;100205.13;4993777;28;20053;-90
2020/12/02 04:25:20;;;;;;;187.77;14.35;;;;;;;7.38;76.96;100203.34;4992725;28;20057;-90
2020/12/02 04:27:46;;;;;;;102.55;11.63;;;;;;;7.39;76.94;100202.44;4993981;28;20050;-89
2020/12/02 04:30:13;;;;;;;99.32;12.38;;;;;;;7.40;76.77;100198.94;4992915;28;20058;-89
2020/12/02 04:32:39;;;;;;;92.10;12.43;;;;;;;7.41;76.65;100205.88;4992678;28;20063;-90
2020/12/02 04:35:07;;;;;;;110.82;13.25;;;;;;;7.42;76.59;100208.44;4993027;28;20054;-89
2020/12/02 04:37:34;;;;;;;141.98;12.95;;;;;;;7.41;76.71;100201.47;4992872;28;20053;-90
2020/12/02 04:40:01;;;;;;;180.75;16.40;;;;;;;7.41;76.52;100198.84;4992866;28;20047;-90
2020/12/02 04:42:33;;;;;;;252.82;18.02;;;;;;;7.40;76.65;100212.88;4992432;28;20053;-90
2020/12/02 04:45:00;;;;;;;293.58;18.30;;;;;;;7.43;76.70;100217.13;4993810;28;20054;-90
2020/12/02 04:47:37;;;;;;;260.10;18.83;;;;;;;7.41;76.03;100205.88;4992910;28;20411;-90
2020/12/02 04:50:13;;;;;;;161.40;17.20;;;;;;;7.41;76.17;100208.50;4992630;28;20502;-90
2020/12/02 04:52:40;;;;;;;152.57;17.77;;;;;;;7.40;76.14;100209.41;4992840;28;20047;-90
2020/12/02 04:55:10;;;;;;;147.95;17.65;;;;;;;7.38;76.48;100211.22;4992517;28;20113;-90
2020/12/02 04:57:36;;;;;;;130.40;17.45;;;;;;;7.38;76.75;100212.09;4995178;28;20483;-90
2020/12/02 05:00:22;;;;;;;127.25;18.98;;;;;;;7.35;75.86;100217.44;4999769;28;20030;-91
2020/12/02 05:02:48;;;;;;;156.75;21.00;;;;;;;7.40;76.72;100214.66;4998152;28;20042;-92
2020/12/02 05:05:19;;;;;;;168.02;20.80;;;;;;;7.39;76.13;100213.78;4995901;28;20145;-90
2020/12/02 05:07:46;;;;;;;134.35;21.15;;;;;;;7.40;75.93;100212.88;4996344;28;20567;-90
2020/12/02 05:10:17;;;;;;;198.98;22.27;;;;;;;7.39;76.06;100212.91;4996981;28;20058;-90
2020/12/02 05:12:46;;;;;;;163.52;22.08;;;;;;;7.38;76.24;100208.59;4996664;28;20415;-90
2020/12/02 06:49:37;;;;;;;90.80;25.95;;;;;;;7.02;75.38;100175.81;5012807;28;20049;-90
2020/12/02 06:52:06;;;;;;;118.55;27.52;;;;;;;7.00;75.78;100181.09;5014229;28;20049;-90
2020/12/02 06:54:36;;;;;;;90.93;27.58;;;;;;;6.98;75.70;100176.84;5014072;28;20140;-90
2020/12/02 09:12:01;;;;;;;71.90;34.58;;;;;;;6.71;77.00;100107.13;5014290;28;20124;-90
2020/12/02 09:14:28;;;;;;;69.20;34.83;;;;;;;6.74;76.61;100103.53;5016015;28;20405;-89
2020/12/02 09:16:54;;;;;;;71.43;34.38;;;;;;;6.76;76.86;100099.09;5015716;28;20137;-90
2020/12/02 10:06:28;;;;;;;67.47;32.63;;;;;;;7.00;76.30;100038.94;5974603;23;20815;31
2020/12/02 10:09:40;;;;;;;77.07;33.38;;;;;;;6.97;75.74;100028.56;5011786;28;20137;-91
2020/12/02 12:13:41;;;;;;;54.60;28.10;;;;;;;7.39;75.37;99889.03;5014990;28;20050;-90
2020/12/02 12:16:20;;;;;;;58.50;28.48;;;;;;;7.37;74.91;99876.91;5016694;28;20104;-90
2020/12/02 12:19:20;;;;;;;54.05;27.75;;;;;;;7.35;74.67;99876.97;5016849;28;20061;-90
2020/12/02 12:27:03;;;;;;;58.38;29.90;;;;;;;7.39;75.27;99875.94;5690936;22;20330;-90
2020/12/02 12:29:29;;;;;;;57.00;28.75;;;;;;;7.38;75.66;99863.75;4996937;28;20116;-91
2020/12/02 12:32:06;;;;;;;57.60;28.30;;;;;;;7.35;74.72;99856.03;4997869;28;20054;-92
2020/12/02 12:34:57;;;;;;;58.22;29.77;;;;;;;7.36;74.99;99846.41;4996623;28;20054;-90
2020/12/02 12:37:34;;;;;;;53.53;28.83;;;;;;;7.35;74.96;99842.94;4996692;28;20559;-90
2020/12/02 12:40:10;;;;;;;56.97;28.52;;;;;;;7.36;75.16;99842.00;4996806;28;20050;-90
2020/12/02 12:42:38;;;;;;;56.58;29.35;;;;;;;7.39;75.80;99835.78;4996505;28;20057;-91
2020/12/02 12:45:12;;;;;;;58.20;29.20;;;;;;;7.37;75.22;99830.63;4996502;28;20133;-90
2020/12/02 12:47:39;;;;;;;52.25;28.27;;;;;;;7.40;75.48;99827.88;4997024;28;20058;-90
2020/12/02 12:50:08;;;;;;;56.22;28.38;;;;;;;7.40;75.59;99822.63;4997784;28;20193;-90
2020/12/02 12:52:36;;;;;;;55.08;28.65;;;;;;;7.41;75.48;99819.09;4996306;28;20045;-90
2020/12/02 12:55:03;;;;;;;45.83;24.80;;;;;;;7.43;75.56;99822.50;4996549;28;20054;-90
2020/12/02 12:57:30;;;;;;;55.03;27.20;;;;;;;7.44;75.43;99820.72;4997483;28;20074;-90
2020/12/02 12:59:59;;;;;;;50.63;26.95;;;;;;;7.41;75.32;99813.84;4997498;28;20093;-90
2020/12/02 13:02:30;;;;;;;54.78;26.33;;;;;;;7.43;75.24;99803.31;4995988;28;20121;-90
2020/12/02 13:04:57;;;;;;;50.58;26.55;;;;;;;7.44;75.61;99802.41;4997338;28;20054;-90
2020/12/02 13:07:35;;;;;;;49.33;26.50;;;;;;;7.40;74.76;99804.31;4997115;28;20208;-90
2020/12/02 13:10:16;;;;;;;50.58;26.27;;;;;;;7.40;74.68;99787.75;4996391;28;20046;-90
2020/12/02 13:12:54;;;;;;;56.45;27.17;;;;;;;7.40;74.73;99787.75;4995969;28;20057;-90
2020/12/02 13:15:39;;;;;;;51.45;27.05;;;;;;;7.42;75.39;99778.91;4995838;28;20056;-90
2020/12/02 13:18:17;;;;;;;44.75;24.60;;;;;;;7.38;74.52;99782.59;4996184;28;20046;-90
2020/12/02 13:20:58;;;;;;;50.60;26.25;;;;;;;7.37;74.67;99780.84;4995652;28;20483;-90
2020/12/02 13:23:33;;;;;;;48.40;24.33;;;;;;;7.37;75.07;99780.84;4995741;28;20053;-90
2020/12/02 13:26:12;;;;;;;45.10;25.45;;;;;;;7.39;74.75;99778.19;4995836;28;20054;-90
2020/12/02 13:28:44;;;;;;;53.00;26.23;;;;;;;7.39;74.93;99773.81;4995410;28;20054;-90
2020/12/02 13:31:18;;;;;;;48.63;25.75;;;;;;;7.41;75.21;99776.34;4995617;28;20557;-90
2020/12/02 13:33:48;;;;;;;46.75;24.45;;;;;;;7.41;75.09;99764.09;4996682;28;20137;-90
2020/12/02 13:36:25;;;;;;;46.58;23.85;;;;;;;7.40;74.70;99766.81;4997036;28;20414;-90
2020/12/02 13:38:53;;;;;;;48.33;25.33;;;;;;;7.43;75.44;99766.66;4996878;28;20054;-89
2020/12/02 13:41:25;;;;;;;48.28;26.45;;;;;;;7.40;74.72;99762.41;4995515;28;20050;-90
2020/12/02 13:43:53;;;;;;;48.72;25.35;;;;;;;7.41;75.05;99760.66;4995370;28;20095;-90
2020/12/02 13:46:20;;;;;;;51.13;26.58;;;;;;;7.40;75.33;99759.78;4995214;28;20193;-89
2020/12/02 13:48:50;;;;;;;43.25;24.10;;;;;;;7.39;74.85;99759.84;4995154;28;20491;-90
2020/12/02 13:51:31;;;;;;;49.92;25.02;;;;;;;7.39;75.09;99767.69;4995354;28;20384;-89
2020/12/02 13:54:04;;;;;;;48.22;25.23;;;;;;;7.38;75.31;99761.63;4995348;28;20061;-89
2020/12/02 13:56:37;;;;;;;45.88;24.77;;;;;;;7.38;75.09;99756.41;4995175;28;20089;-89
2020/12/02 13:59:19;;;;;;;48.22;26.00;;;;;;;7.35;74.73;99756.53;4994946;28;20133;-89
2020/12/02 14:02:00;;;;;;;44.55;24.30;;;;;;;7.37;74.96;99754.66;4994992;28;20057;-89
2020/12/02 14:04:50;;;;;;;45.75;23.23;;;;;;;7.35;74.65;99751.28;4994924;28;20058;-89
2020/12/02 14:07:18;;;;;;;48.08;24.98;;;;;;;7.39;75.52;99752.84;4996021;28;20060;-89
2020/12/02 14:10:10;;;;;;;48.83;26.33;;;;;;;7.35;74.92;99738.19;4994957;28;20052;-89
2020/12/02 14:12:39;;;;;;;48.47;25.05;;;;;;;7.40;75.49;99740.63;4994741;28;20050;-90
2020/12/02 14:15:07;;;;;;;43.78;24.08;;;;;;;7.40;75.22;99736.22;4995997;28;20388;-89
2020/12/02 14:17:34;;;;;;;47.90;25.02;;;;;;;7.40;75.38;99728.34;4994518;28;20061;-89
2020/12/02 14:20:00;;;;;;;46.88;25.17;;;;;;;7.40;75.24;99723.13;4994545;28;20058;-89
2020/12/02 14:22:29;;;;;;;43.35;23.65;;;;;;;7.38;75.13;99724.97;4994740;28;20054;-89
2020/12/02 14:25:01;;;;;;;43.65;24.40;;;;;;;7.39;75.09;99728.41;4996515;28;20050;-89
2020/12/02 14:27:30;;;;;;;47.95;23.95;;;;;;;7.39;75.12;99731.91;4994292;28;20133;-89
2020/12/02 14:29:58;;;;;;;48.90;25.10;;;;;;;7.39;75.37;99721.44;4994203;28;20061;-89
2020/12/02 14:32:25;;;;;;;46.70;24.85;;;;;;;7.39;75.16;99716.19;4995398;28;20498;-88
2020/12/02 14:34:52;;;;;;;50.10;24.98;;;;;;;7.39;75.10;99710.09;4994557;28;20046;-89
2020/12/02 14:37:18;;;;;;;46.35;24.30;;;;;;;7.38;74.87;99708.41;4994108;28;20438;-89
2020/12/02 14:39:45;;;;;;;46.80;23.90;;;;;;;7.36;74.86;99710.25;4995520;28;20046;-89
2020/12/02 14:42:16;;;;;;;47.60;24.42;;;;;;;7.33;74.74;99700.72;4994181;28;20057;-89
2020/12/02 14:44:43;;;;;;;47.38;24.02;;;;;;;7.32;74.97;99698.22;4994482;28;20537;-89
2020/12/02 14:47:11;;;;;;;47.00;24.48;;;;;;;7.29;74.78;99700.03;4994120;28;20056;-89
2020/12/02 14:49:37;;;;;;;49.60;26.40;;;;;;;7.29;74.88;99696.56;4995261;28;20050;-89
2020/12/02 14:52:03;;;;;;;51.20;25.60;;;;;;;7.27;75.42;99699.25;4994198;28;20462;-89
2020/12/02 14:54:30;;;;;;;47.13;24.98;;;;;;;7.26;75.20;99686.22;4995072;28;20061;-89
2020/12/02 14:57:22;;;;;;;49.95;25.20;;;;;;;7.22;74.30;99689.91;4993799;28;20073;-89
2020/12/02 15:00:24;;;;;;;47.17;24.58;;;;;;;7.22;74.60;99690.72;4994179;28;20051;-89
2020/12/02 15:02:50;;;;;;;45.50;23.23;;;;;;;7.26;75.01;99683.63;4938306;29;20063;-89
2020/12/02 15:05:23;;;;;;;53.90;26.77;;;;;;;7.23;74.91;99691.59;4987026;28;20129;-89
2020/12/02 15:07:52;;;;;;;49.30;25.73;;;;;;;7.25;75.48;99687.16;4993952;28;20057;-89
2020/12/02 15:10:22;;;;;;;45.53;24.65;;;;;;;7.24;75.33;99685.44;4993698;28;20113;-89
2020/12/02 15:12:50;;;;;;;50.55;24.95;;;;;;;7.25;75.29;99684.53;4993765;28;20419;-89
2020/12/02 15:15:23;;;;;;;45.20;24.08;;;;;;;7.23;74.93;99681.13;4994863;28;20046;-89
2020/12/02 15:18:01;;;;;;;41.40;22.83;;;;;;;7.25;75.20;99674.06;4994757;28;20056;-88
2020/12/02 15:20:42;;;;;;;45.25;22.88;;;;;;;7.24;75.35;99673.22;4993640;28;20089;-89
2020/12/02 15:23:16;;;;;;;46.20;23.80;;;;;;;7.25;74.89;99676.69;4993278;28;20048;-88
2020/12/02 15:25:42;;;;;;;45.08;23.80;;;;;;;7.26;75.22;99676.59;4993510;28;20065;-88
2020/12/02 15:28:14;;;;;;;43.90;24.25;;;;;;;7.26;74.86;99673.13;4994365;28;20066;-88
2020/12/02 15:30:43;;;;;;;44.35;23.13;;;;;;;7.28;75.21;99684.38;4994372;28;20058;-88
2020/12/02 15:33:19;;;;;;;43.85;23.48;;;;;;;7.27;74.80;99674.84;4992932;28;20491;-88
2020/12/02 15:35:53;;;;;;;44.08;23.85;;;;;;;7.28;75.02;99668.66;4993340;28;20447;-88
2020/12/02 15:38:29;;;;;;;42.70;23.02;;;;;;;7.30;74.88;99669.47;4993145;28;20065;-88
2020/12/02 15:41:15;;;;;;;44.00;22.83;;;;;;;7.30;74.64;99669.47;4994124;28;20518;-88
2020/12/02 15:44:00;;;;;;;44.85;21.58;;;;;;;7.31;74.74;99668.53;4993589;28;20050;-87
2020/12/02 15:46:30;;;;;;;42.33;23.27;;;;;;;7.35;75.40;99661.38;4994078;28;20515;-88
2020/12/02 15:49:10;;;;;;;48.30;23.08;;;;;;;7.34;74.95;99665.78;4993147;28;20478;-88
2020/12/02 15:51:47;;;;;;;43.45;22.80;;;;;;;7.34;74.86;99660.56;4994231;28;20050;-88
2020/12/02 15:54:23;;;;;;;40.15;21.48;;;;;;;7.34;74.67;99650.09;4993731;28;20513;-88
2020/12/02 15:57:03;;;;;;;37.05;21.67;;;;;;;7.37;75.26;99649.91;4992691;28;20050;-88
2020/12/02 15:59:42;;;;;;;34.38;19.75;;;;;;;7.38;74.94;99650.78;4994164;28;20077;-88
2020/12/02 16:02:09;;;;;;;37.05;20.58;;;;;;;7.39;75.11;99653.34;4992798;28;20054;-88
2020/12/02 16:04:40;;;;;;;29.67;17.33;;;;;;;7.40;74.68;99657.66;4993067;28;20078;-88
2020/12/02 16:07:36;;;;;;;36.45;19.65;;;;;;;7.38;74.43;99645.53;4992893;28;20046;-88
2020/12/02 16:10:06;;;;;;;39.53;19.40;;;;;;;7.42;74.80;99647.97;4994049;28;20046;-88
2020/12/02 16:12:32;;;;;;;40.35;20.60;;;;;;;7.43;75.16;99638.31;4992931;28;20129;-88
2020/12/02 16:15:10;;;;;;;38.03;18.73;;;;;;;7.40;74.44;99630.63;4992591;28;20047;-88
2020/12/02 16:17:37;;;;;;;30.70;17.52;;;;;;;7.45;75.05;99633.03;4992647;28;20057;-88
2020/12/02 16:20:14;;;;;;;30.80;16.67;;;;;;;7.43;74.52;99633.09;4992844;28;20053;-88
2020/12/02 16:22:49;;;;;;;37.97;19.33;;;;;;;7.41;74.42;99617.44;4992380;28;20491;-88
2020/12/02 16:25:20;;;;;;;29.95;17.55;;;;;;;7.43;74.83;99613.00;4992639;28;20057;-88
2020/12/02 16:27:47;;;;;;;32.28;19.35;;;;;;;7.45;75.32;99610.31;4993724;28;20061;-88
2020/12/02 16:30:14;;;;;;;40.20;20.42;;;;;;;7.46;75.08;99606.75;4993005;28;20057;-90
2020/12/02 16:32:55;;;;;;;32.92;19.38;;;;;;;7.43;74.49;99593.81;4993744;28;20049;-90
2020/12/02 16:35:22;;;;;;;36.22;20.38;;;;;;;7.47;74.69;99589.28;4992804;28;20487;-90
2020/12/02 16:37:57;;;;;;;39.47;22.38;;;;;;;7.42;74.42;99582.50;4993817;28;20050;-90
2020/12/02 16:40:24;;;;;;;37.03;20.73;;;;;;;7.47;74.89;99584.06;4992578;28;20093;-90
2020/12/02 16:43:21;;;;;;;36.40;21.20;;;;;;;7.41;74.33;99586.00;4992487;28;20104;-91
2020/12/02 16:46:20;;;;;;;37.42;21.23;;;;;;;7.42;74.37;99595.59;4992770;28;20047;-90
2020/12/02 16:48:58;;;;;;;33.97;18.08;;;;;;;7.46;74.52;99590.19;4993954;28;20070;-91
2020/12/02 16:52:01;;;;;;;32.90;18.90;;;;;;;7.40;74.41;99583.50;4992740;28;20081;-91
2020/12/02 16:54:59;;;;;;;31.33;18.63;;;;;;;7.39;74.30;99580.00;4995793;28;20050;-91
2020/12/02 16:57:29;;;;;;;33.47;18.52;;;;;;;7.40;74.95;99578.25;4996375;28;20454;-91
2020/12/02 17:00:31;;;;;;;30.60;18.30;;;;;;;7.36;74.13;99584.56;4996324;28;20054;-91
2020/12/02 17:03:24;;;;;;;31.83;18.20;;;;;;;7.35;74.55;99574.97;4995713;28;20050;-91
2020/12/02 17:06:04;;;;;;;32.47;18.48;;;;;;;7.36;74.61;99580.16;4996202;28;20061;-92
2020/12/02 17:08:34;;;;;;;33.55;19.25;;;;;;;7.36;74.99;99572.28;4997138;28;20144;-92
2020/12/02 17:11:36;;;;;;;31.15;18.67;;;;;;;7.33;74.70;99574.22;4995921;28;20049;-91
2020/12/02 17:14:30;;;;;;;30.90;17.73;;;;;;;7.34;74.26;99573.28;4995509;28;20050;-91
2020/12/02 17:17:01;;;;;;;29.83;17.30;;;;;;;7.36;74.45;99571.47;4995611;28;20085;-91
2020/12/02 17:19:49;;;;;;;33.35;18.13;;;;;;;7.34;74.46;99558.44;4996072;28;20080;-91
2020/12/02 17:22:47;;;;;;;30.45;17.38;;;;;;;7.34;74.27;99555.81;4995840;28;20142;-91
2020/12/02 17:25:42;;;;;;;29.20;16.05;;;;;;;7.35;74.12;99557.50;4995751;28;20053;-91
2020/12/02 17:28:14;;;;;;;25.10;14.10;;;;;;;7.38;74.56;99552.13;4988777;28;20499;-92
2020/12/02 17:31:02;;;;;;;27.17;14.23;;;;;;;7.36;74.19;99550.50;4995750;28;20058;-91
2020/12/02 17:33:43;;;;;;;24.42;13.52;;;;;;;7.36;74.43;99550.50;4995666;28;20054;-90
2020/12/02 17:36:32;;;;;;;21.38;12.45;;;;;;;7.34;74.21;99547.97;4996085;28;20510;-91
2020/12/02 17:39:06;;;;;;;19.77;12.50;;;;;;;7.36;74.90;99553.97;4995435;28;20134;-91
2020/12/02 17:41:54;;;;;;;20.00;12.60;;;;;;;7.30;74.13;99552.47;4995537;28;20518;-92
2020/12/02 17:44:59;;;;;;;18.27;12.05;;;;;;;7.29;73.57;99547.34;4995306;28;20050;-91
2020/12/02 17:47:35;;;;;;;21.58;12.40;;;;;;;7.28;74.08;99549.09;4973296;28;20062;-91
2020/12/02 17:50:33;;;;;;;20.05;12.70;;;;;;;7.23;73.88;99547.59;4995286;28;20061;-92
2020/12/02 17:53:13;;;;;;;19.55;11.27;;;;;;;7.21;74.28;99547.66;4983815;28;20052;-92
2020/12/02 17:56:01;;;;;;;21.23;12.15;;;;;;;7.13;73.79;99548.03;4995370;28;20088;-92
2020/12/02 17:58:56;;;;;;;19.58;11.95;;;;;;;7.07;73.52;99544.84;4995108;28;20129;-92
2020/12/02 18:01:52;;;;;;;18.13;11.35;;;;;;;7.03;73.57;99541.53;4994883;28;20112;-92
2020/12/02 18:04:58;;;;;;;18.00;12.02;;;;;;;6.94;73.56;99545.41;4994413;28;20503;-92
2020/12/02 18:07:41;;;;;;;17.10;11.27;;;;;;;6.89;73.98;99545.59;4987061;28;20058;-91
2020/12/02 18:10:10;;;;;;;18.67;11.57;;;;;;;6.88;75.11;99537.84;4994936;28;20130;-91
2020/12/02 18:12:46;;;;;;;15.40;10.00;;;;;;;6.86;75.37;99534.44;4994697;28;20153;-91
2020/12/02 18:15:26;;;;;;;16.77;11.65;;;;;;;6.84;74.59;99523.22;4995107;28;20054;-91
2020/12/02 18:18:16;;;;;;;19.50;12.27;;;;;;;6.85;74.69;99530.13;4994694;28;20081;-91
2020/12/02 18:21:24;;;;;;;18.30;11.73;;;;;;;6.79;74.50;99526.00;4994820;28;20419;-91
2020/12/02 18:24:01;;;;;;;18.73;12.00;;;;;;;6.81;74.41;99525.94;4974683;28;20396;-91
2020/12/02 18:34:44;;;;;;;21.25;12.68;;;;;;;6.79;74.78;99512.94;5012911;28;20046;-90
2020/12/02 18:37:14;;;;;;;18.63;11.18;;;;;;;6.83;75.22;99506.66;5014061;28;20064;-93
2020/12/02 18:40:09;;;;;;;16.35;11.20;;;;;;;6.83;74.99;99497.94;5014408;28;20049;-90
2020/12/02 18:43:13;;;;;;;15.75;10.75;;;;;;;6.83;75.35;99490.94;5014159;28;20042;-92
2020/12/02 18:45:41;;;;;;;20.23;11.43;;;;;;;6.88;75.82;99478.50;5013892;28;20063;-92